地図

経路データ

SID SEASON NUMBER BASIN SUBBASIN NAME ISO_TIME NATURE LAT LON WMO_WIND WMO_PRES WMO_AGENCY TRACK_TYPE DIST2LAND LANDFALL IFLAG USA_AGENCY USA_ATCF_ID USA_LAT USA_LON USA_RECORD USA_STATUS USA_WIND USA_PRES USA_SSHS USA_R34_NE USA_R34_SE USA_R34_SW USA_R34_NW USA_R50_NE USA_R50_SE USA_R50_SW USA_R50_NW USA_R64_NE USA_R64_SE USA_R64_SW USA_R64_NW USA_POCI USA_ROCI USA_RMW USA_EYE TOKYO_LAT TOKYO_LON TOKYO_GRADE TOKYO_WIND TOKYO_PRES TOKYO_R50_DIR TOKYO_R50_LONG TOKYO_R50_SHORT TOKYO_R30_DIR TOKYO_R30_LONG TOKYO_R30_SHORT TOKYO_LAND CMA_LAT CMA_LON CMA_CAT CMA_WIND CMA_PRES HKO_LAT HKO_LON HKO_CAT HKO_WIND HKO_PRES NEWDELHI_LAT NEWDELHI_LON NEWDELHI_GRADE NEWDELHI_WIND NEWDELHI_PRES NEWDELHI_CI NEWDELHI_DP NEWDELHI_POCI REUNION_LAT REUNION_LON REUNION_TYPE REUNION_WIND REUNION_PRES REUNION_TNUM REUNION_CI REUNION_RMW REUNION_R34_NE REUNION_R34_SE REUNION_R34_SW REUNION_R34_NW REUNION_R50_NE REUNION_R50_SE REUNION_R50_SW REUNION_R50_NW REUNION_R64_NE REUNION_R64_SE REUNION_R64_SW REUNION_R64_NW BOM_LAT BOM_LON BOM_TYPE BOM_WIND BOM_PRES BOM_TNUM BOM_CI BOM_RMW BOM_R34_NE BOM_R34_SE BOM_R34_SW BOM_R34_NW BOM_R50_NE BOM_R50_SE BOM_R50_SW BOM_R50_NW BOM_R64_NE BOM_R64_SE BOM_R64_SW BOM_R64_NW BOM_ROCI BOM_POCI BOM_EYE BOM_POS_METHOD BOM_PRES_METHOD NADI_LAT NADI_LON NADI_CAT NADI_WIND NADI_PRES WELLINGTON_LAT WELLINGTON_LON WELLINGTON_WIND WELLINGTON_PRES DS824_LAT DS824_LON DS824_STAGE DS824_WIND DS824_PRES TD9636_LAT TD9636_LON TD9636_STAGE TD9636_WIND TD9636_PRES TD9635_LAT TD9635_LON TD9635_WIND TD9635_PRES TD9635_ROCI NEUMANN_LAT NEUMANN_LON NEUMANN_CLASS NEUMANN_WIND NEUMANN_PRES MLC_LAT MLC_LON MLC_CLASS MLC_WIND MLC_PRES USA_GUST BOM_GUST BOM_GUST_PER REUNION_GUST REUNION_GUST_PER USA_SEAHGT USA_SEARAD_NE USA_SEARAD_SE USA_SEARAD_SW USA_SEARAD_NW STORM_SPEED STORM_DIR
1913224N10140 1913 36 WP MM NOT_NAMED 1913-08-12 10:00:00 NR 9.80000 140.300 main 1283 1279 __________O___ -1 9.80000 140.300 4 3 288
1913224N10140 1913 36 WP MM NOT_NAMED 1913-08-12 12:00:00 NR 9.82987 140.210 main 1279 1279 __________P___ -1 9.82987 140.210 4 3 290
1913224N10140 1913 36 WP MM NOT_NAMED 1913-08-12 15:00:00 NR 9.88848 140.058 main 1286 1278 __________P___ -1 9.88848 140.058 4 4 294
1913224N10140 1913 36 WP MM NOT_NAMED 1913-08-12 18:00:00 NR 9.98258 139.865 main 1288 1281 __________P___ -1 9.98258 139.865 4 5 299
1913224N10140 1913 36 WP MM NOT_NAMED 1913-08-12 21:00:00 NR 10.1334 139.606 main 1288 1288 __________P___ -1 10.1334 139.606 4 6 301
1913224N10140 1913 36 WP MM NOT_NAMED 1913-08-12 22:00:00 NR 10.2000 139.500 main 1295 1291 __________O___ -1 10.2000 139.500 4 8 303
1913224N10140 1913 36 WP MM NOT_NAMED 1913-08-13 00:00:00 NR 10.3601 139.257 main 1309 1302 __________P___ -1 10.3601 139.257 4 10 304
1913224N10140 1913 36 WP MM NOT_NAMED 1913-08-13 03:00:00 NR 10.6568 138.822 main 1325 1322 __________P___ -1 10.6568 138.822 4 11 305
1913224N10140 1913 36 WP MM NOT_NAMED 1913-08-13 06:00:00 NR 11.0020 138.324 main 1336 1290 __________P___ -1 11.0020 138.324 4 12 305
1913224N10140 1913 36 WP MM NOT_NAMED 1913-08-13 09:00:00 NR 11.3738 137.785 main 1292 1274 __________P___ -1 11.3738 137.785 4 13 305
1913224N10140 1913 36 WP MM NOT_NAMED 1913-08-13 10:00:00 NR 11.5000 137.600 main 1274 1235 __________O___ -1 11.5000 137.600 4 13 304
1913224N10140 1913 36 WP MM NOT_NAMED 1913-08-13 12:00:00 NR 11.7492 137.227 main 1235 1182 __________P___ -1 11.7492 137.227 4 14 304
1913224N10140 1913 36 WP MM NOT_NAMED 1913-08-13 15:00:00 NR 12.1358 136.641 main 1182 1123 __________P___ -1 12.1358 136.641 4 14 304
1913224N10140 1913 36 WP MM NOT_NAMED 1913-08-13 18:00:00 NR 12.5210 136.049 main 1123 1075 __________P___ -1 12.5210 136.049 4 14 303
1913224N10140 1913 36 WP MM NOT_NAMED 1913-08-13 21:00:00 NR 12.8860 135.480 main 1077 1057 __________P___ -1 12.8860 135.480 4 13 303
1913224N10140 1913 36 WP MM NOT_NAMED 1913-08-13 22:00:00 NR 13.0000 135.300 main 1057 1030 __________O___ -1 13.0000 135.300 4 12 303
1913224N10140 1913 36 WP MM NOT_NAMED 1913-08-14 00:00:00 NR 13.2082 134.979 main 1030 986 __________P___ -1 13.2082 134.979 4 11 303
1913224N10140 1913 36 WP MM NOT_NAMED 1913-08-14 03:00:00 NR 13.4958 134.529 main 986 947 __________P___ -1 13.4958 134.529 4 10 303
1913224N10140 1913 36 WP MM NOT_NAMED 1913-08-14 06:00:00 NR 13.7621 134.096 main 949 911 __________P___ -1 13.7621 134.096 4 10 301
1913224N10140 1913 36 WP MM NOT_NAMED 1913-08-14 09:00:00 NR 14.0163 133.654 main 911 892 __________P___ -1 14.0163 133.654 4 10 300
1913224N10140 1913 36 WP MM NOT_NAMED 1913-08-14 10:00:00 NR 14.1000 133.500 main 892 863 __________O___ -1 14.1000 133.500 4 11 299
1913224N10140 1913 36 WP MM NOT_NAMED 1913-08-14 12:00:00 NR 14.2748 133.175 main 866 820 __________P___ -1 14.2748 133.175 4 11 298
1913224N10140 1913 36 WP MM NOT_NAMED 1913-08-14 15:00:00 NR 14.5308 132.668 main 820 770 __________P___ -1 14.5308 132.668 4 11 297
1913224N10140 1913 36 WP MM NOT_NAMED 1913-08-14 18:00:00 NR 14.7795 132.140 main 770 730 __________P___ -1 14.7795 132.140 4 12 295
1913224N10140 1913 36 WP MM NOT_NAMED 1913-08-14 21:00:00 NR 15.0211 131.589 main 730 715 __________P___ -1 15.0211 131.589 4 12 294
1913224N10140 1913 36 WP MM NOT_NAMED 1913-08-14 22:00:00 NR 15.1000 131.400 main 715 688 __________O___ -1 15.1000 131.400 4 12 293
1913224N10140 1913 36 WP MM NOT_NAMED 1913-08-15 00:00:00 NR 15.2529 131.019 main 688 645 __________P___ -1 15.2529 131.019 4 12 292
1913224N10140 1913 36 WP MM NOT_NAMED 1913-08-15 03:00:00 NR 15.4760 130.430 main 645 607 __________P___ -1 15.4760 130.430 4 12 291
1913224N10140 1913 36 WP MM NOT_NAMED 1913-08-15 06:00:00 NR 15.6971 129.824 main 607 562 __________P___ -1 15.6971 129.824 4 13 291
1913224N10140 1913 36 WP MM NOT_NAMED 1913-08-15 09:00:00 NR 15.9227 129.207 main 562 547 __________P___ -1 15.9227 129.207 4 13 291
1913224N10140 1913 36 WP MM NOT_NAMED 1913-08-15 10:00:00 NR 16.0000 129.000 main 547 514 __________O___ -1 16.0000 129.000 4 13 292
1913224N10140 1913 36 WP MM NOT_NAMED 1913-08-15 12:00:00 NR 16.1714 128.574 main 519 468 __________P___ -1 16.1714 128.574 4 13 293
1913224N10140 1913 36 WP MM NOT_NAMED 1913-08-15 15:00:00 NR 16.4353 127.927 main 468 441 __________P___ -1 16.4353 127.927 4 13 293
1913224N10140 1913 36 WP MM NOT_NAMED 1913-08-15 18:00:00 NR 16.6930 127.292 main 441 414 __________P___ -1 16.6930 127.292 4 13 293
1913224N10140 1913 36 WP MM NOT_NAMED 1913-08-15 21:00:00 NR 16.9289 126.690 main 414 410 __________P___ -1 16.9289 126.690 4 12 292
1913224N10140 1913 36 WP MM NOT_NAMED 1913-08-15 22:00:00 NR 17.0000 126.500 main 410 393 __________O___ -1 17.0000 126.500 4 11 290
1913224N10140 1913 36 WP MM NOT_NAMED 1913-08-16 00:00:00 NR 17.1142 126.151 main 393 340 __________P___ -1 17.1142 126.151 4 10 288
1913224N10140 1913 36 WP MM NOT_NAMED 1913-08-16 03:00:00 NR 17.2608 125.666 main 341 290 __________P___ -1 17.2608 125.666 4 9 287
1913224N10140 1913 36 WP MM NOT_NAMED 1913-08-16 06:00:00 NR 17.3970 125.207 main 290 250 __________P___ -1 17.3970 125.207 4 9 288
1913224N10140 1913 36 WP MM NOT_NAMED 1913-08-16 09:00:00 NR 17.5445 124.754 main 250 232 __________P___ -1 17.5445 124.754 4 9 289
1913224N10140 1913 36 WP MM NOT_NAMED 1913-08-16 10:00:00 NR 17.6000 124.600 main 232 206 __________O___ -1 17.6000 124.600 4 9 292
1913224N10140 1913 36 WP MM NOT_NAMED 1913-08-16 12:00:00 NR 17.7189 124.303 main 206 172 __________P___ -1 17.7189 124.303 4 9 294
1913224N10140 1913 36 WP MM NOT_NAMED 1913-08-16 15:00:00 NR 17.9161 123.852 main 172 118 __________P___ -1 17.9161 123.852 4 10 295
1913224N10140 1913 36 WP MM NOT_NAMED 1913-08-16 18:00:00 NR 18.1422 123.365 main 118 52 __________P___ -1 18.1422 123.365 4 11 296
1913224N10140 1913 36 WP MM NOT_NAMED 1913-08-16 21:00:00 NR 18.4038 122.807 main 52 33 __________P___ -1 18.4038 122.807 4 12 296
1913224N10140 1913 36 WP MM NOT_NAMED 1913-08-16 22:00:00 NR 18.5000 122.600 main 33 22 __________O___ -1 18.5000 122.600 4 14 296
1913224N10140 1913 36 WP MM NOT_NAMED 1913-08-17 00:00:00 NR 18.7048 122.148 main 33 33 __________P___ -1 18.7048 122.148 4 15 295
1913224N10140 1913 36 WP MM NOT_NAMED 1913-08-17 03:00:00 NR 19.0433 121.395 main 55 64 __________P___ -1 19.0433 121.395 4 17 295
1913224N10140 1913 36 WP MM NOT_NAMED 1913-08-17 06:00:00 NR 19.4057 120.571 main 91 94 __________P___ -1 19.4057 120.571 4 18 295
1913224N10140 1913 36 WP MM NOT_NAMED 1913-08-17 09:00:00 NR 19.7769 119.698 main 177 184 __________P___ -1 19.7769 119.698 4 18 294
1913224N10140 1913 36 WP MM NOT_NAMED 1913-08-17 10:00:00 NR 19.9000 119.400 main 206 206 __________O___ -1 19.9000 119.400 4 18 294
1913224N10140 1913 36 WP MM NOT_NAMED 1913-08-17 12:00:00 NR 20.1397 118.837 main 268 273 __________P___ -1 20.1397 118.837 4 18 294
1913224N10140 1913 36 WP MM NOT_NAMED 1913-08-17 15:00:00 NR 20.5000 117.963 main 309 229 __________P___ -1 20.5000 117.963 4 18 293
1913224N10140 1913 36 WP MM NOT_NAMED 1913-08-17 18:00:00 NR 20.8537 117.038 main 229 168 __________P___ -1 20.8537 117.038 4 19 291
1913224N10140 1913 36 WP MM NOT_NAMED 1913-08-17 21:00:00 NR 21.1921 116.047 main 168 156 __________P___ -1 21.1921 116.047 4 20 290
1913224N10140 1913 36 WP MM NOT_NAMED 1913-08-17 22:00:00 NR 21.3000 115.700 main 156 112 __________O___ -1 21.3000 115.700 4 21 289
1913224N10140 1913 36 WP MM NOT_NAMED 1913-08-18 00:00:00 NR 21.5366 114.983 main 112 45 __________P___ -1 21.5366 114.983 4 22 288
1913224N10140 1913 36 WP MM NOT_NAMED 1913-08-18 03:00:00 NR 21.8735 113.844 main 45 0 __________P___ -1 21.8735 113.844 4 23 286
1913224N10140 1913 36 WP MM NOT_NAMED 1913-08-18 06:00:00 NR 22.1587 112.647 main 0 0 __________P___ -1 22.1587 112.647 4 23 282
1913224N10140 1913 36 WP MM NOT_NAMED 1913-08-18 09:00:00 NR 22.3582 111.415 main 0 0 __________P___ -1 22.3582 111.415 4 23 279
1913224N10140 1913 36 WP MM NOT_NAMED 1913-08-18 10:00:00 NR 22.4000 111.000 main 0 0 __________O___ -1 22.4000 111.000 4 23 274
1913224N10140 1913 36 WP MM NOT_NAMED 1913-08-18 12:00:00 NR 22.4422 110.168 main 0 0 __________P___ -1 22.4422 110.168 4 23 271
1913224N10140 1913 36 WP MM NOT_NAMED 1913-08-18 15:00:00 NR 22.4170 108.917 main 0 0 __________P___ -1 22.4170 108.917 4 23 267
1913224N10140 1913 36 WP MM NOT_NAMED 1913-08-18 18:00:00 NR 22.3120 107.666 main 0 0 __________P___ -1 22.3120 107.666 4 23 264
1913224N10140 1913 36 WP MM NOT_NAMED 1913-08-18 21:00:00 NR 22.1574 106.416 main 0 0 __________P___ -1 22.1574 106.416 4 23 262
1913224N10140 1913 36 WP MM NOT_NAMED 1913-08-18 22:00:00 NR 22.1000 106.000 main 0 __________O___ -1 22.1000 106.000 7 23 262

デジタル台風データ・検索

IBTrACS Databaseについて

本データベースは、米国NOAAが公開する1842年以降の世界の熱帯低気圧のベストトラックデータアーカイブInternational Best Track Archive for Climate Stewardship (IBTrACS)を、ウェブで閲覧しやすい形式に変換したものです。

最終更新日:2021-10-21